createdAt,value
2022-11-02T00:01:43.013Z,77.20
2022-11-02T00:04:15.623Z,74.00
2022-11-02T00:06:47.453Z,75.10
2022-11-02T00:09:20.092Z,75.70
2022-11-02T00:11:52.343Z,73.80
2022-11-02T00:14:24.429Z,74.90
2022-11-02T00:16:56.595Z,72.10
2022-11-02T00:19:28.659Z,77.20
2022-11-02T00:22:02.712Z,71.10
2022-11-02T00:24:37.822Z,73.20
2022-11-02T00:27:11.491Z,72.10
2022-11-02T00:29:44.033Z,72.40
2022-11-02T00:32:18.057Z,69.40
2022-11-02T00:34:52.332Z,69.30
2022-11-02T00:37:24.161Z,68.30
2022-11-02T00:39:55.986Z,64.90
2022-11-02T00:42:30.586Z,65.10
2022-11-02T00:45:02.914Z,67.90
2022-11-02T00:47:34.862Z,69.40
2022-11-02T00:50:09.362Z,64.50
2022-11-02T00:52:43.488Z,63.00
2022-11-02T00:55:18.213Z,60.90
2022-11-02T00:57:50.193Z,64.10
2022-11-02T01:00:25.597Z,62.30
2022-11-02T01:03:00.259Z,62.60
2022-11-02T01:05:37.530Z,59.00
2022-11-02T01:08:09.746Z,61.70
2022-11-02T01:10:45.513Z,58.20
2022-11-02T01:13:23.721Z,58.30
2022-11-02T01:15:55.654Z,59.90
2022-11-02T01:18:32.490Z,54.90
2022-11-02T01:21:04.813Z,58.80
2022-11-02T01:23:38.186Z,56.10
2022-11-02T01:26:11.917Z,58.10
2022-11-02T01:28:47.469Z,54.90
2022-11-02T01:31:19.266Z,57.70
2022-11-02T01:33:51.244Z,57.60
2022-11-02T01:39:00.888Z,54.60
2022-11-02T01:41:35.460Z,58.80
2022-11-02T01:44:29.363Z,56.70
2022-11-02T01:47:06.545Z,53.80
2022-11-02T01:49:49.644Z,56.50
2022-11-02T01:52:26.862Z,53.90
2022-11-02T01:55:06.553Z,56.60
2022-11-02T01:57:56.976Z,55.10
2022-11-02T02:00:31.508Z,53.40
2022-11-02T02:03:09.008Z,51.90
2022-11-02T02:05:46.514Z,50.50
2022-11-02T02:08:28.221Z,52.20
2022-11-02T02:11:00.673Z,51.90
2022-11-02T02:13:33.313Z,53.40
2022-11-02T02:16:17.375Z,52.10
2022-11-02T02:19:00.257Z,55.40
2022-11-02T02:21:43.266Z,52.40
2022-11-02T02:24:32.238Z,53.30
2022-11-02T02:27:17.368Z,51.40
2022-11-02T02:30:03.240Z,50.20
2022-11-02T02:32:42.289Z,54.40
2022-11-02T02:35:25.784Z,53.20
2022-11-02T02:38:02.178Z,53.00
2022-11-02T02:40:39.747Z,52.40
2022-11-02T02:43:17.871Z,53.30
2022-11-02T02:45:56.763Z,51.90
2022-11-02T02:48:29.652Z,51.10
2022-11-02T02:51:08.428Z,48.10
2022-11-02T02:53:45.587Z,47.10
2022-11-02T02:56:24.562Z,48.20
2022-11-02T02:59:03.547Z,47.40
2022-11-02T03:01:40.780Z,48.90
2022-11-02T03:04:16.329Z,45.30
2022-11-02T03:06:56.076Z,47.20
2022-11-02T03:09:33.814Z,44.50
2022-11-02T03:15:21.618Z,43.40
2022-11-02T03:18:07.650Z,42.90
2022-11-02T03:20:54.501Z,46.50
2022-11-02T03:23:30.940Z,46.70
2022-11-02T03:26:09.595Z,44.30
2022-11-02T03:28:58.067Z,46.80
2022-11-02T03:31:47.316Z,45.80
2022-11-02T03:34:29.900Z,47.90
2022-11-02T03:39:47.052Z,45.50
2022-11-02T03:42:24.664Z,43.80
2022-11-02T03:45:02.301Z,45.40
2022-11-02T03:47:38.039Z,44.00
2022-11-02T03:50:19.994Z,49.50
2022-11-02T03:52:58.751Z,49.10
2022-11-02T03:55:40.093Z,43.30
2022-11-02T03:58:13.946Z,47.50
2022-11-02T04:00:53.395Z,48.60
2022-11-02T04:03:26.355Z,44.00
2022-11-02T04:05:58.847Z,43.90
2022-11-02T04:08:37.865Z,43.10
2022-11-02T04:11:30.454Z,46.30
2022-11-02T04:14:27.939Z,52.20
2022-11-02T04:17:14.155Z,45.20
2022-11-02T04:19:50.509Z,47.30
2022-11-02T04:22:41.648Z,48.00
2022-11-02T04:25:21.684Z,44.80
2022-11-02T04:28:13.705Z,49.40
2022-11-02T04:30:50.412Z,56.70
2022-11-02T04:33:37.561Z,57.60
2022-11-02T04:36:15.080Z,54.10
2022-11-02T04:38:48.085Z,61.50
2022-11-02T04:41:45.361Z,55.20
2022-11-02T04:44:24.923Z,58.50
2022-11-02T04:47:18.868Z,58.30
2022-11-02T04:49:50.661Z,56.30
2022-11-02T04:52:25.544Z,61.20
2022-11-02T04:54:58.889Z,61.60
2022-11-02T04:57:31.232Z,62.50
2022-11-02T05:00:05.238Z,62.70
2022-11-02T05:02:37.779Z,59.20
2022-11-02T05:05:12.816Z,57.70
2022-11-02T05:07:46.356Z,55.20
2022-11-02T05:10:18.560Z,56.40
2022-11-02T05:12:57.346Z,56.60
2022-11-02T05:15:30.643Z,53.80
2022-11-02T05:18:03.344Z,52.50
2022-11-02T05:20:35.717Z,54.60
2022-11-02T05:23:08.454Z,51.50
2022-11-02T05:25:45.391Z,55.40
2022-11-02T05:28:18.107Z,49.80
2022-11-02T05:30:53.230Z,49.10
2022-11-02T05:33:30.269Z,54.10
2022-11-02T05:36:03.601Z,56.10
2022-11-02T05:41:16.846Z,55.50
2022-11-02T05:43:48.848Z,56.30
2022-11-02T05:46:21.012Z,54.50
2022-11-02T05:48:53.247Z,58.60
2022-11-02T05:51:24.969Z,65.00
2022-11-02T05:53:56.792Z,62.90
2022-11-02T05:56:29.035Z,62.60
2022-11-02T05:59:01.153Z,59.70
2022-11-02T06:01:33.471Z,55.70
2022-11-02T06:04:05.672Z,60.70
2022-11-02T06:06:37.723Z,53.60
2022-11-02T06:09:10.825Z,51.40
2022-11-02T06:11:45.346Z,50.80
2022-11-02T06:14:17.308Z,50.90
2022-11-02T06:16:49.184Z,46.00
2022-11-02T06:19:21.310Z,39.10
2022-11-02T06:21:53.833Z,36.00
2022-11-02T06:24:26.012Z,33.90
2022-11-02T06:26:57.817Z,37.00
2022-11-02T06:29:31.716Z,31.90
2022-11-02T06:32:03.796Z,32.50
2022-11-02T06:34:35.838Z,35.90
2022-11-02T06:37:10.145Z,34.80
2022-11-02T06:39:42.210Z,34.00
2022-11-02T06:42:14.174Z,33.20
2022-11-02T06:44:45.981Z,31.80
2022-11-02T06:47:19.922Z,32.20
2022-11-02T06:49:52.107Z,31.50
2022-11-02T06:52:23.897Z,31.70
2022-11-02T06:54:56.366Z,31.10
2022-11-02T06:57:30.108Z,32.10
2022-11-02T07:00:05.155Z,31.60
2022-11-02T07:02:37.216Z,31.00
2022-11-02T07:05:09.649Z,31.20
2022-11-02T07:07:41.685Z,29.30
2022-11-02T07:10:14.610Z,29.30
2022-11-02T07:12:46.398Z,29.90
2022-11-02T07:15:18.392Z,28.00
2022-11-02T07:17:51.048Z,28.20
2022-11-02T07:20:23.108Z,28.50
2022-11-02T07:22:59.285Z,29.10
2022-11-02T07:25:34.051Z,29.70
2022-11-02T07:28:06.576Z,32.80
2022-11-02T07:30:38.437Z,33.80
2022-11-02T07:33:10.226Z,36.60
2022-11-02T07:35:47.667Z,35.40
2022-11-02T07:38:22.203Z,36.60
2022-11-02T07:40:54.329Z,32.60
2022-11-02T07:43:26.508Z,35.10
2022-11-02T07:46:08.498Z,54.10
2022-11-02T07:48:41.087Z,36.80
2022-11-02T07:51:13.378Z,34.60
2022-11-02T07:53:46.612Z,34.20
2022-11-02T07:56:24.162Z,33.00
2022-11-02T07:58:56.024Z,29.60
2022-11-02T08:01:29.109Z,27.70
2022-11-02T08:04:00.944Z,29.00
2022-11-02T08:06:32.811Z,31.10
2022-11-02T08:09:04.708Z,28.30
2022-11-02T08:11:59.155Z,28.20
2022-11-02T08:14:31.377Z,28.10
2022-11-02T08:17:03.196Z,28.90
2022-11-02T08:19:35.094Z,28.40
2022-11-02T08:22:07.034Z,28.30
2022-11-02T08:24:44.098Z,28.40
2022-11-02T08:27:17.212Z,28.60
2022-11-02T08:29:49.266Z,26.20
2022-11-02T08:32:21.135Z,27.10
2022-11-02T08:34:52.968Z,32.90
2022-11-02T08:37:25.057Z,28.70
2022-11-02T08:39:56.915Z,31.10
2022-11-02T08:42:28.730Z,34.80
2022-11-02T08:45:00.593Z,30.00
2022-11-02T08:47:32.399Z,29.50
2022-11-02T08:50:07.039Z,35.00
2022-11-02T08:52:40.783Z,37.40
2022-11-02T08:55:13.740Z,34.60
2022-11-02T08:57:49.431Z,33.20
2022-11-02T09:00:23.486Z,33.90
2022-11-02T09:03:03.850Z,32.70
2022-11-02T09:05:37.959Z,31.10
2022-11-02T09:08:12.464Z,32.40
2022-11-02T09:10:45.245Z,30.30
2022-11-02T09:13:25.408Z,30.70
2022-11-02T09:16:03.530Z,28.40
2022-11-02T09:18:35.454Z,31.10
2022-11-02T09:21:10.239Z,31.90
2022-11-02T09:23:44.984Z,34.70
2022-11-02T09:26:22.845Z,40.30
2022-11-02T09:28:54.770Z,35.80
2022-11-02T09:31:29.375Z,34.10
2022-11-02T09:34:01.367Z,37.10
2022-11-02T09:36:33.409Z,36.40
2022-11-02T09:39:05.260Z,37.90
2022-11-02T09:41:42.045Z,37.10
2022-11-02T09:44:20.128Z,38.00
2022-11-02T09:47:27.833Z,40.10
2022-11-02T09:49:45.719Z,36.60
2022-11-02T09:52:25.684Z,38.00
2022-11-02T09:54:59.951Z,39.10
2022-11-02T09:57:33.458Z,33.80
2022-11-02T10:00:06.268Z,35.60
2022-11-02T10:02:55.040Z,32.30
2022-11-02T10:05:41.011Z,32.90
2022-11-02T10:08:36.050Z,32.10
2022-11-02T10:11:21.358Z,28.80
2022-11-02T10:14:00.622Z,33.20
2022-11-02T10:16:37.786Z,30.10
2022-11-02T10:19:17.381Z,26.90
2022-11-02T10:21:53.031Z,26.10
2022-11-02T10:24:33.166Z,25.70
2022-11-02T10:27:14.444Z,29.40
2022-11-02T10:29:53.821Z,28.40
2022-11-02T10:32:26.132Z,30.00
2022-11-02T10:34:59.247Z,25.70
2022-11-02T10:37:57.242Z,26.10
2022-11-02T10:40:43.492Z,27.80
2022-11-02T10:43:25.508Z,23.60
2022-11-02T10:46:15.506Z,25.40
2022-11-02T10:48:54.539Z,22.80
2022-11-02T10:51:26.478Z,21.40
2022-11-02T10:53:58.407Z,22.00
2022-11-02T10:56:34.460Z,22.00
2022-11-02T10:59:14.573Z,21.80
2022-11-02T11:02:07.046Z,19.80
2022-11-02T11:04:39.192Z,20.20
2022-11-02T11:07:18.106Z,18.60
2022-11-02T11:09:52.613Z,19.80
2022-11-02T11:12:30.557Z,19.90
2022-11-02T11:20:55.671Z,20.70
2022-11-02T11:23:28.639Z,20.40
2022-11-02T11:26:03.195Z,21.10
2022-11-02T11:28:41.375Z,21.10
2022-11-02T11:31:16.453Z,18.50
2022-11-02T11:33:53.020Z,16.70
2022-11-02T11:36:29.409Z,17.80
2022-11-02T11:39:06.295Z,20.10
2022-11-02T11:41:42.388Z,22.30
2022-11-02T11:44:16.538Z,25.40
2022-11-02T11:46:51.227Z,22.70
2022-11-02T11:52:32.682Z,22.20
2022-11-02T11:55:23.123Z,21.40
2022-11-02T11:58:19.689Z,18.60
2022-11-02T12:01:10.532Z,18.30
2022-11-02T12:03:55.496Z,16.30
2022-11-02T12:06:33.856Z,16.90
2022-11-02T12:09:13.787Z,17.10
2022-11-02T12:11:54.717Z,16.30
2022-11-02T12:14:43.120Z,17.60
2022-11-02T12:17:39.262Z,18.90
2022-11-02T12:20:41.129Z,16.60
2022-11-02T12:23:32.288Z,15.90
2022-11-02T12:26:19.899Z,19.90
2022-11-02T12:29:07.533Z,16.50
2022-11-02T12:31:42.477Z,15.10
2022-11-02T12:34:36.018Z,15.70
2022-11-02T12:37:35.823Z,15.70
2022-11-02T12:43:12.612Z,21.70
2022-11-02T12:45:53.449Z,14.80
2022-11-02T12:48:35.392Z,13.90
2022-11-02T12:51:15.430Z,17.80
2022-11-02T12:53:55.225Z,15.30
2022-11-02T12:56:32.844Z,15.80
2022-11-02T12:59:04.701Z,14.90
2022-11-02T13:01:41.855Z,24.40
2022-11-02T13:04:23.265Z,17.80
2022-11-02T13:07:03.420Z,16.60
2022-11-02T13:09:39.272Z,17.10
2022-11-02T13:12:15.813Z,14.00
2022-11-02T13:14:53.856Z,16.50
2022-11-02T13:17:41.193Z,14.90
2022-11-02T13:20:19.797Z,11.20
2022-11-02T13:22:56.846Z,11.10
2022-11-02T13:25:37.414Z,11.00
2022-11-02T13:28:17.633Z,12.30
2022-11-02T13:30:50.613Z,11.10
2022-11-02T13:33:29.882Z,18.20
2022-11-02T13:36:02.280Z,11.50
2022-11-02T13:38:39.308Z,14.30
2022-11-02T13:41:29.152Z,10.60
2022-11-02T13:44:26.023Z,15.30
2022-11-02T13:47:18.974Z,12.10
2022-11-02T13:49:56.853Z,16.50
2022-11-02T13:52:38.247Z,11.20
2022-11-02T13:55:18.631Z,10.00
2022-11-02T13:57:54.728Z,10.90
2022-11-02T14:00:41.960Z,13.40
2022-11-02T14:03:19.751Z,13.00
2022-11-02T14:05:55.439Z,11.10
2022-11-02T14:08:38.889Z,9.50
2022-11-02T14:11:26.942Z,11.90
2022-11-02T14:14:26.606Z,10.60
2022-11-02T14:17:13.258Z,15.20
2022-11-02T14:20:04.921Z,15.30
2022-11-02T14:22:39.613Z,11.80
2022-11-02T14:25:21.515Z,11.40
2022-11-02T14:27:56.879Z,12.00
2022-11-02T14:44:24.120Z,14.50
2022-11-02T14:47:01.977Z,12.10
2022-11-02T14:49:37.068Z,14.40
2022-11-02T14:52:18.596Z,16.80
2022-11-02T14:54:54.042Z,14.60
2022-11-02T14:57:30.519Z,13.20
2022-11-02T15:00:05.952Z,18.10
2022-11-02T15:02:43.430Z,31.60
2022-11-02T15:05:28.534Z,41.20
2022-11-02T15:08:04.360Z,41.50
2022-11-02T15:10:43.883Z,28.10
2022-11-02T15:13:48.650Z,23.90
2022-11-02T15:16:42.321Z,20.00
2022-11-02T15:19:43.817Z,18.50
2022-11-02T15:22:40.628Z,12.70
2022-11-02T15:25:21.325Z,15.90
2022-11-02T15:27:57.388Z,14.00
2022-11-02T15:30:29.603Z,30.00
2022-11-02T15:33:05.770Z,17.10
2022-11-02T15:35:42.674Z,17.00
2022-11-02T15:38:18.508Z,14.10
2022-11-02T15:41:05.983Z,59.50
2022-11-02T15:43:57.282Z,22.90
2022-11-02T15:46:48.003Z,15.30
2022-11-02T15:49:41.039Z,22.00
2022-11-02T15:52:26.916Z,29.20
2022-11-02T15:55:11.512Z,34.40
2022-11-02T15:57:53.607Z,39.30
2022-11-02T16:00:30.936Z,28.60
2022-11-02T16:03:05.694Z,25.30
2022-11-02T16:05:51.356Z,17.50
2022-11-02T16:08:32.694Z,67.10
2022-11-02T16:11:13.774Z,22.80
2022-11-02T16:14:07.999Z,230.10
2022-11-02T16:16:49.389Z,39.80
2022-11-02T16:19:23.242Z,37.90
2022-11-02T16:22:00.993Z,94.60
2022-11-02T16:24:34.540Z,21.90
2022-11-02T16:27:10.378Z,23.80
2022-11-02T16:29:42.691Z,18.80
2022-11-02T16:32:15.482Z,14.80
2022-11-02T16:34:47.704Z,15.40
2022-11-02T16:37:21.626Z,15.40
2022-11-02T16:39:54.006Z,17.10
2022-11-02T16:42:28.811Z,54.90
2022-11-02T16:45:04.796Z,13.40
2022-11-02T16:47:41.872Z,17.50
2022-11-02T16:50:25.541Z,13.50
2022-11-02T16:53:01.380Z,13.40
2022-11-02T16:55:40.299Z,16.80
2022-11-02T16:58:21.689Z,20.00
2022-11-02T17:00:59.763Z,21.90
2022-11-02T17:03:40.117Z,16.00
2022-11-02T17:06:13.448Z,24.70
2022-11-02T17:08:51.140Z,21.40
2022-11-02T17:11:25.220Z,17.20
2022-11-02T17:14:01.814Z,17.50
2022-11-02T17:16:36.538Z,21.10
2022-11-02T17:19:29.421Z,38.20
2022-11-02T17:22:15.808Z,30.10
2022-11-02T17:24:48.261Z,21.80
2022-11-02T17:27:26.830Z,23.10
2022-11-02T17:29:58.914Z,18.60
2022-11-02T17:32:31.550Z,16.20
2022-11-02T17:35:07.381Z,18.80
2022-11-02T17:37:39.857Z,23.40
2022-11-02T17:40:14.901Z,48.80
2022-11-02T17:43:02.523Z,40.80
2022-11-02T17:45:37.459Z,41.50
2022-11-02T17:48:10.990Z,31.50
2022-11-02T17:50:44.380Z,28.60
2022-11-02T17:53:16.414Z,24.70
2022-11-02T17:55:48.480Z,23.00
2022-11-02T17:58:20.415Z,29.90
2022-11-02T18:00:54.633Z,18.70
2022-11-02T18:03:31.436Z,28.90
2022-11-02T18:06:03.886Z,61.60
2022-11-02T18:08:57.240Z,57.80
2022-11-02T18:11:29.094Z,37.20
2022-11-02T18:14:01.101Z,20.80
2022-11-02T18:16:33.756Z,19.40
2022-11-02T18:19:05.907Z,19.00
2022-11-02T18:21:37.952Z,17.10
2022-11-02T18:24:11.093Z,21.20
2022-11-02T18:26:45.888Z,16.80
2022-11-02T18:29:19.089Z,21.50
2022-11-02T18:31:51.230Z,27.80
2022-11-02T18:34:23.199Z,32.80
2022-11-02T18:36:55.062Z,26.50
2022-11-02T18:39:26.930Z,23.00
2022-11-02T18:41:58.920Z,19.70
2022-11-02T18:44:30.851Z,17.90
2022-11-02T18:47:03.167Z,17.70
2022-11-02T18:49:35.546Z,17.10
2022-11-02T18:52:12.597Z,15.00
2022-11-02T18:54:44.539Z,19.80
2022-11-02T18:57:16.551Z,21.80
2022-11-02T18:59:48.637Z,25.30
2022-11-02T19:02:20.684Z,23.80
2022-11-02T19:04:53.184Z,20.30
2022-11-02T19:07:45.530Z,22.00
2022-11-02T19:10:19.710Z,21.90
2022-11-02T19:12:51.597Z,17.20
2022-11-02T19:15:23.590Z,15.30
2022-11-02T19:17:55.598Z,20.80
2022-11-02T19:20:27.591Z,30.70
2022-11-02T19:22:59.478Z,48.40
2022-11-02T19:25:34.356Z,40.90
2022-11-02T19:28:07.078Z,32.10
2022-11-02T19:30:41.144Z,40.00
2022-11-02T19:33:13.231Z,32.10
2022-11-02T19:35:55.015Z,31.20
2022-11-02T19:38:27.679Z,42.80
2022-11-02T19:41:10.087Z,28.70
2022-11-02T19:43:43.804Z,22.90
2022-11-02T19:46:18.335Z,19.10
2022-11-02T19:48:50.706Z,20.30
2022-11-02T19:51:24.317Z,22.30
2022-11-02T19:53:59.324Z,14.90
2022-11-02T19:56:34.263Z,16.20
2022-11-02T19:59:15.186Z,18.40
2022-11-02T20:01:50.740Z,16.60
2022-11-02T20:04:25.079Z,21.00
2022-11-02T20:06:58.377Z,17.70
2022-11-02T20:09:30.877Z,17.70
2022-11-02T20:12:07.447Z,20.50
2022-11-02T20:14:39.504Z,20.70
2022-11-02T20:17:30.080Z,18.90
2022-11-02T20:20:04.324Z,19.50
2022-11-02T20:22:38.713Z,15.40
2022-11-02T20:25:12.324Z,19.50
2022-11-02T20:27:45.318Z,15.20
2022-11-02T20:30:22.395Z,16.70
2022-11-02T20:32:54.526Z,15.10
2022-11-02T20:35:29.533Z,16.90
2022-11-02T20:38:04.785Z,13.40
2022-11-02T20:40:41.105Z,10.90
2022-11-02T20:43:14.265Z,12.70
2022-11-02T20:45:46.552Z,10.90
2022-11-02T20:48:18.886Z,10.50
2022-11-02T20:50:51.053Z,13.10
2022-11-02T20:53:23.255Z,11.30
2022-11-02T20:55:56.138Z,11.10
2022-11-02T20:58:28.562Z,11.50
2022-11-02T21:01:01.259Z,12.70
2022-11-02T21:03:33.488Z,9.90
2022-11-02T21:06:09.606Z,15.50
2022-11-02T21:08:43.223Z,13.40
2022-11-02T21:11:32.803Z,12.60
2022-11-02T21:14:04.839Z,11.00
2022-11-02T21:16:40.276Z,13.40
2022-11-02T21:19:12.105Z,10.90
2022-11-02T21:21:45.140Z,12.70
2022-11-02T21:24:22.264Z,9.00
2022-11-02T21:26:54.356Z,11.30
2022-11-02T21:29:26.376Z,9.60
2022-11-02T21:31:58.450Z,10.80
2022-11-02T21:34:30.312Z,9.60
2022-11-02T21:37:06.638Z,10.20
2022-11-02T21:39:41.883Z,9.10
2022-11-02T21:42:13.816Z,9.30
2022-11-02T21:44:45.868Z,14.10
2022-11-02T21:47:17.946Z,8.20
2022-11-02T21:49:50.034Z,6.40
2022-11-02T21:52:21.974Z,7.30
2022-11-02T21:54:56.069Z,6.70
2022-11-02T21:57:28.088Z,8.50
2022-11-02T22:00:00.176Z,7.90
2022-11-02T22:02:35.106Z,11.60
2022-11-02T22:05:07.871Z,6.60
2022-11-02T22:07:53.844Z,8.30
2022-11-02T22:10:26.174Z,9.50
2022-11-02T22:13:15.796Z,8.80
2022-11-02T22:15:47.887Z,8.10
2022-11-02T22:18:20.565Z,8.70
2022-11-02T22:20:58.519Z,7.60
2022-11-02T22:23:30.634Z,9.80
2022-11-02T22:26:05.836Z,9.10
2022-11-02T22:28:40.466Z,10.00
2022-11-02T22:31:14.767Z,8.90
2022-11-02T22:33:47.847Z,8.20
2022-11-02T22:36:21.914Z,10.00
2022-11-02T22:38:57.937Z,9.70
2022-11-02T22:41:31.954Z,9.40
2022-11-02T22:44:06.307Z,8.60
2022-11-02T22:46:40.315Z,8.30
2022-11-02T22:49:14.591Z,8.30
2022-11-02T22:51:49.131Z,9.20
2022-11-02T22:54:22.030Z,17.50
2022-11-02T22:56:58.539Z,12.10
2022-11-02T22:59:30.614Z,9.40
2022-11-02T23:02:02.797Z,12.10
2022-11-02T23:04:34.864Z,7.90
2022-11-02T23:09:54.775Z,8.70
2022-11-02T23:12:26.653Z,6.50
2022-11-02T23:14:58.662Z,7.80
2022-11-02T23:17:30.724Z,9.10
2022-11-02T23:20:02.712Z,7.40
2022-11-02T23:22:53.864Z,7.70
2022-11-02T23:25:26.144Z,7.60
2022-11-02T23:28:28.704Z,7.00
2022-11-02T23:31:18.177Z,5.80
2022-11-02T23:33:50.742Z,7.60
2022-11-02T23:36:22.779Z,6.70
2022-11-02T23:39:12.651Z,8.10
2022-11-02T23:41:44.873Z,6.60
2022-11-02T23:44:19.098Z,8.30
2022-11-02T23:46:55.578Z,10.10
2022-11-02T23:49:27.655Z,6.80
2022-11-02T23:52:17.302Z,6.80
2022-11-02T23:55:06.761Z,6.60
2022-11-02T23:57:38.657Z,8.10
